Time;durP1;ratioP1;P1;durP2;ratioP2;P2;SDS_P1;SDS_P2;PMS_P1;PMS_P2;Temp;Humidity;BMP_temperature;BMP_pressure;BME280_temperature;BME280_humidity;BME280_pressure;Samples;Min_cycle;Max_cycle;Signal;HPM_P1;HPM_P2
2022/02/27 00:00:55;;;;;;;18.67;6.88;;;0.20;99.90;;;;;;5069505;28;20098;-67
2022/02/27 00:03:23;;;;;;;15.95;7.00;;;0.20;99.90;;;;;;5062757;28;20135;-67
2022/02/27 00:05:50;;;;;;;18.60;7.35;;;0.20;99.90;;;;;;5069928;28;20056;-66
2022/02/27 00:08:18;;;;;;;23.40;7.28;;;0.20;99.90;;;;;;5069715;28;20388;-67
2022/02/27 00:10:45;;;;;;;20.73;7.20;;;0.20;99.90;;;;;;5051303;28;20384;-66
2022/02/27 00:13:13;;;;;;;17.58;7.85;;;0.20;99.90;;;;;;5069162;28;20085;-66
2022/02/27 00:15:40;;;;;;;17.90;8.35;;;0.20;99.90;;;;;;5069402;28;20052;-66
2022/02/27 00:18:08;;;;;;;17.73;7.28;;;0.10;99.90;;;;;;5069737;28;20138;-66
2022/02/27 00:20:35;;;;;;;18.55;8.07;;;0.10;99.90;;;;;;5068587;28;20169;-65
2022/02/27 00:23:02;;;;;;;19.70;7.55;;;0.10;99.90;;;;;;5069047;28;20245;-66
2022/02/27 00:25:30;;;;;;;21.15;8.50;;;0.00;99.90;;;;;;5061110;28;20056;-65
2022/02/27 00:27:57;;;;;;;30.92;11.88;;;0.00;99.90;;;;;;5069147;28;20059;-64
2022/02/27 00:30:25;;;;;;;32.03;13.57;;;0.00;99.90;;;;;;5045633;28;20051;-66
2022/02/27 00:32:52;;;;;;;22.25;9.07;;;-0.10;99.90;;;;;;5069119;28;20060;-65
2022/02/27 00:35:19;;;;;;;21.05;9.73;;;-0.10;99.90;;;;;;5048464;28;20376;-66
2022/02/27 00:37:46;;;;;;;24.92;8.88;;;-0.10;99.90;;;;;;5069782;28;20048;-66
2022/02/27 00:40:14;;;;;;;14.77;7.90;;;-0.10;99.90;;;;;;5069768;28;20467;-65
2022/02/27 00:42:41;;;;;;;20.52;8.20;;;-0.20;99.90;;;;;;5037237;28;20430;-66
2022/02/27 00:45:09;;;;;;;21.95;8.15;;;-0.20;99.90;;;;;;5069741;28;20572;-65
2022/02/27 00:47:38;;;;;;;19.65;9.15;;;-0.20;99.90;;;;;;5060482;28;20156;-66
2022/02/27 00:50:06;;;;;;;20.85;7.55;;;-0.20;99.90;;;;;;5051401;28;20365;-66
2022/02/27 00:52:34;;;;;;;20.25;7.45;;;-0.20;99.90;;;;;;5073969;28;20040;-66
2022/02/27 00:55:01;;;;;;;18.65;8.57;;;-0.20;99.90;;;;;;5044501;28;20389;-66
2022/02/27 00:57:29;;;;;;;17.77;7.05;;;-0.20;99.90;;;;;;5022353;28;20045;-66
2022/02/27 00:59:57;;;;;;;21.17;6.90;;;-0.20;99.90;;;;;;5048385;28;20462;-65
2022/02/27 01:02:25;;;;;;;18.27;7.30;;;-0.20;99.90;;;;;;5047810;28;20045;-65
2022/02/27 01:04:52;;;;;;;22.98;7.05;;;-0.30;99.90;;;;;;5051865;28;20388;-66
2022/02/27 01:07:20;;;;;;;21.15;7.22;;;-0.30;99.90;;;;;;5069449;28;20045;-65
2022/02/27 01:09:47;;;;;;;14.13;7.28;;;-0.30;99.90;;;;;;5070091;28;20151;-66
2022/02/27 01:12:16;;;;;;;18.88;6.93;;;-0.30;99.90;;;;;;5033825;28;20528;-65
2022/02/27 01:14:43;;;;;;;20.55;7.40;;;-0.30;99.90;;;;;;5069994;28;20622;-65
2022/02/27 01:17:10;;;;;;;17.90;7.43;;;-0.30;99.90;;;;;;5053974;28;20060;-66
2022/02/27 01:19:38;;;;;;;20.58;7.95;;;-0.30;99.90;;;;;;5064893;28;20380;-66
2022/02/27 01:22:05;;;;;;;18.38;8.15;;;-0.30;99.90;;;;;;5062066;28;20044;-66
2022/02/27 01:24:35;;;;;;;17.13;6.97;;;-0.30;99.90;;;;;;5054267;28;20111;-66
2022/02/27 01:27:03;;;;;;;19.83;7.70;;;-0.40;99.90;;;;;;5072576;28;20414;-66
2022/02/27 01:29:33;;;;;;;15.30;6.82;;;-0.40;99.90;;;;;;5068827;28;20036;-65
2022/02/27 01:32:00;;;;;;;20.00;7.47;;;-0.40;99.90;;;;;;5072366;28;20533;-65
2022/02/27 01:34:28;;;;;;;18.33;7.68;;;-0.40;99.90;;;;;;5066535;28;20055;-66
2022/02/27 01:36:56;;;;;;;16.67;7.35;;;-0.40;99.90;;;;;;5068512;28;20495;-65
2022/02/27 01:39:23;;;;;;;17.35;7.70;;;-0.50;99.90;;;;;;5054638;28;20449;-65
2022/02/27 01:41:51;;;;;;;22.17;8.02;;;-0.50;99.90;;;;;;5053978;28;20106;-64
2022/02/27 01:44:18;;;;;;;14.85;7.50;;;-0.50;99.90;;;;;;5072361;28;20040;-65
2022/02/27 01:47:00;;;;;;;15.98;7.95;;;-0.60;99.90;;;;;;5067111;28;20037;-64
2022/02/27 01:49:28;;;;;;;17.98;7.72;;;-0.50;99.90;;;;;;5067803;28;20048;-66
2022/02/27 01:52:00;;;;;;;19.90;7.95;;;-0.50;99.90;;;;;;5062143;28;20393;-65
2022/02/27 01:54:30;;;;;;;23.58;8.30;;;-0.50;99.90;;;;;;5060852;28;20072;-65
2022/02/27 01:56:58;;;;;;;18.38;7.65;;;-0.50;99.90;;;;;;5056284;28;20041;-64
2022/02/27 01:59:26;;;;;;;18.50;8.90;;;-0.40;99.90;;;;;;5068208;28;20044;-65
2022/02/27 02:01:54;;;;;;;23.60;8.95;;;-0.40;99.90;;;;;;5053443;28;20368;-65
2022/02/27 02:04:22;;;;;;;18.63;8.27;;;-0.40;99.90;;;;;;5070450;28;20060;-64
2022/02/27 02:06:50;;;;;;;21.58;8.65;;;-0.40;99.90;;;;;;5072163;28;20045;-65
2022/02/27 02:09:18;;;;;;;29.88;9.10;;;-0.40;99.90;;;;;;5053832;28;20049;-65
2022/02/27 02:11:49;;;;;;;;;;;-0.30;99.90;;;;;;5072034;28;20064;-65
2022/02/27 02:14:18;;;;;;;20.35;8.48;;;-0.30;99.90;;;;;;5054083;28;19931;-65
2022/02/27 02:16:52;;;;;;;21.73;9.02;;;-0.30;99.90;;;;;;5053928;28;20553;-64
2022/02/27 02:19:23;;;;;;;21.40;9.00;;;-0.30;99.90;;;;;;5053848;28;20040;-65
2022/02/27 02:21:59;;;;;;;18.92;8.65;;;-0.30;99.90;;;;;;5053347;28;20124;-65
2022/02/27 02:24:27;;;;;;;22.55;9.45;;;-0.40;99.90;;;;;;5054194;28;20040;-65
2022/02/27 02:26:55;;;;;;;17.88;8.52;;;-0.40;99.90;;;;;;5054446;28;20483;-64
2022/02/27 02:29:25;;;;;;;24.63;8.93;;;-0.30;99.90;;;;;;5054136;28;20131;-65
2022/02/27 02:31:55;;;;;;;22.70;10.20;;;-0.30;99.90;;;;;;5072322;28;20565;-66
2022/02/27 02:34:24;;;;;;;25.38;9.23;;;-0.30;99.90;;;;;;5054668;28;20056;-65
2022/02/27 02:36:56;;;;;;;21.17;9.43;;;-0.20;99.90;;;;;;5053874;28;20043;-66
2022/02/27 02:39:26;;;;;;;20.60;9.00;;;-0.20;99.90;;;;;;5053344;28;20045;-65
2022/02/27 02:41:56;;;;;;;22.93;9.03;;;-0.10;99.90;;;;;;5049428;28;20044;-65
2022/02/27 02:44:35;;;;;;;20.60;8.43;;;-0.10;99.90;;;;;;5051461;28;20363;-65
2022/02/27 02:47:02;;;;;;;24.33;8.68;;;0.00;99.90;;;;;;5051809;28;20052;-65
2022/02/27 02:49:31;;;;;;;20.58;9.20;;;-0.10;99.90;;;;;;5033699;28;20052;-64
2022/02/27 02:51:59;;;;;;;21.88;8.73;;;-0.10;99.90;;;;;;5052565;28;20040;-66
2022/02/27 02:54:27;;;;;;;21.20;8.50;;;-0.10;99.90;;;;;;5052794;28;20045;-65
2022/02/27 02:56:55;;;;;;;19.55;8.77;;;-0.10;99.90;;;;;;5052855;28;20562;-65
2022/02/27 02:59:24;;;;;;;21.70;8.75;;;0.00;99.90;;;;;;5062718;28;20706;-65
2022/02/27 03:01:52;;;;;;;24.50;9.23;;;0.00;99.90;;;;;;5063471;28;20484;-65
2022/02/27 03:04:21;;;;;;;25.38;9.80;;;0.10;99.90;;;;;;5064984;28;20418;-66
2022/02/27 03:06:48;;;;;;;23.70;8.82;;;0.10;99.90;;;;;;5063945;28;20419;-65
2022/02/27 03:09:16;;;;;;;18.13;8.15;;;0.00;99.90;;;;;;5071536;28;20415;-66
2022/02/27 03:11:43;;;;;;;26.23;8.80;;;0.00;99.90;;;;;;5070673;28;20238;-64
2022/02/27 03:14:10;;;;;;;21.52;8.38;;;0.00;99.90;;;;;;5071607;28;20052;-64
2022/02/27 03:16:37;;;;;;;20.98;8.70;;;-0.10;99.90;;;;;;5052224;28;20063;-65
2022/02/27 03:19:05;;;;;;;21.58;8.45;;;-0.10;99.90;;;;;;5070016;28;20040;-64
2022/02/27 03:21:32;;;;;;;21.17;8.80;;;-0.10;99.90;;;;;;5070468;28;20414;-64
2022/02/27 03:23:59;;;;;;;19.90;8.68;;;-0.10;99.90;;;;;;5069380;28;20032;-65
2022/02/27 03:26:26;;;;;;;22.40;8.80;;;-0.20;99.90;;;;;;5064083;28;20079;-65
2022/02/27 03:28:54;;;;;;;19.25;8.40;;;-0.20;99.90;;;;;;5068696;28;20059;-65
2022/02/27 03:31:21;;;;;;;22.63;8.85;;;-0.10;99.90;;;;;;5069608;28;20044;-66
2022/02/27 03:33:48;;;;;;;20.75;8.52;;;-0.20;99.90;;;;;;5068397;28;20415;-65
2022/02/27 03:36:16;;;;;;;22.65;8.85;;;-0.20;99.90;;;;;;5069687;28;20040;-65
2022/02/27 03:38:43;;;;;;;18.65;8.40;;;-0.20;99.90;;;;;;5069615;28;20478;-65
2022/02/27 03:41:12;;;;;;;23.45;8.85;;;-0.20;99.90;;;;;;5065804;28;20540;-65
2022/02/27 03:43:40;;;;;;;21.17;9.07;;;-0.20;99.90;;;;;;5070205;28;20040;-64
2022/02/27 03:46:07;;;;;;;20.13;8.05;;;-0.20;99.90;;;;;;5069283;28;20048;-65
2022/02/27 03:48:35;;;;;;;22.50;8.57;;;-0.20;99.90;;;;;;5069970;28;20376;-65
2022/02/27 03:51:03;;;;;;;19.65;7.82;;;-0.20;99.90;;;;;;5065426;28;20499;-65
2022/02/27 03:53:30;;;;;;;22.65;8.52;;;-0.20;99.90;;;;;;5069124;28;20055;-64
2022/02/27 03:55:57;;;;;;;22.40;7.82;;;-0.20;99.90;;;;;;5069186;28;20470;-64
2022/02/27 03:58:25;;;;;;;19.40;8.57;;;-0.30;99.90;;;;;;5068798;28;20053;-64
2022/02/27 04:00:52;;;;;;;19.38;8.73;;;-0.30;99.90;;;;;;5069173;28;20040;-64
2022/02/27 04:03:20;;;;;;;17.95;8.10;;;-0.30;99.90;;;;;;5055126;28;20055;-65
2022/02/27 04:05:47;;;;;;;21.27;9.32;;;-0.40;99.90;;;;;;5069578;28;20044;-65
2022/02/27 04:08:15;;;;;;;21.55;7.53;;;-0.40;99.90;;;;;;5067276;28;20052;-64
2022/02/27 04:10:42;;;;;;;20.48;8.70;;;-0.40;99.90;;;;;;5068188;28;20055;-65
2022/02/27 04:13:09;;;;;;;20.23;8.10;;;-0.50;99.90;;;;;;5068209;28;20483;-64
2022/02/27 04:15:37;;;;;;;24.08;9.60;;;-0.50;99.90;;;;;;5068148;28;20155;-65
2022/02/27 04:18:04;;;;;;;21.20;8.65;;;-0.50;99.90;;;;;;5059697;28;20049;-64
2022/02/27 04:20:32;;;;;;;19.10;8.70;;;-0.60;99.90;;;;;;5070079;28;20040;-65
2022/02/27 04:22:59;;;;;;;19.80;8.88;;;-0.60;99.90;;;;;;5068766;28;20037;-65
2022/02/27 04:25:26;;;;;;;18.83;9.00;;;-0.50;99.90;;;;;;5070054;28;20047;-65
2022/02/27 04:27:55;;;;;;;20.80;9.02;;;-0.60;99.90;;;;;;5063765;28;20446;-65
2022/02/27 04:30:25;;;;;;;;;;;-0.60;99.90;;;;;;5067256;28;20399;-65
2022/02/27 04:32:53;;;;;;;20.27;8.90;;;-0.60;99.90;;;;;;5067559;28;19924;-65
2022/02/27 04:35:21;;;;;;;18.60;9.35;;;-0.60;99.90;;;;;;5067970;28;20047;-65
2022/02/27 04:37:48;;;;;;;19.45;8.88;;;-0.60;99.90;;;;;;5069686;28;20052;-65
2022/02/27 04:40:16;;;;;;;22.33;9.18;;;-0.70;99.90;;;;;;5067217;28;20037;-65
2022/02/27 04:42:43;;;;;;;16.33;8.18;;;-0.70;99.90;;;;;;5058334;28;20044;-66
2022/02/27 04:45:11;;;;;;;20.75;9.23;;;-0.70;99.90;;;;;;5068709;28;20044;-65
2022/02/27 04:47:38;;;;;;;23.70;8.65;;;-0.70;99.90;;;;;;5057095;28;20049;-64
2022/02/27 04:50:06;;;;;;;21.88;9.30;;;-0.70;99.90;;;;;;5072820;28;20153;-65
2022/02/27 04:52:34;;;;;;;27.63;9.98;;;-0.70;99.90;;;;;;5074069;28;20048;-66
2022/02/27 04:55:03;;;;;;;24.02;9.00;;;-0.70;99.90;;;;;;5070809;28;20086;-65
2022/02/27 04:57:31;;;;;;;23.38;9.10;;;-0.80;99.90;;;;;;5072985;28;20590;-65
2022/02/27 05:00:00;;;;;;;22.80;10.10;;;-0.80;99.90;;;;;;5073837;28;20036;-65
2022/02/27 05:02:28;;;;;;;21.55;9.25;;;-0.80;99.90;;;;;;5074264;28;20052;-65
2022/02/27 05:04:56;;;;;;;20.80;8.60;;;-0.80;99.90;;;;;;5074404;28;20044;-65
2022/02/27 05:07:23;;;;;;;21.90;8.70;;;-0.90;99.90;;;;;;5073743;28;20044;-65
2022/02/27 05:09:51;;;;;;;20.65;9.35;;;-0.90;99.90;;;;;;5073734;28;20049;-65
2022/02/27 05:12:19;;;;;;;20.45;8.32;;;-0.90;99.90;;;;;;5071143;28;20128;-65
2022/02/27 05:14:46;;;;;;;20.88;8.68;;;-0.90;99.90;;;;;;5073983;28;20415;-65
2022/02/27 05:17:34;;;;;;;18.27;9.25;;;-0.90;99.90;;;;;;5054999;28;20177;-65
2022/02/27 05:20:03;;;;;;;23.48;9.13;;;-0.90;99.90;;;;;;5054937;28;20123;-64
2022/02/27 05:22:30;;;;;;;23.73;9.48;;;-0.90;99.90;;;;;;5071317;28;20067;-64
2022/02/27 05:24:58;;;;;;;26.98;10.23;;;-0.90;99.90;;;;;;5072934;28;20046;-64
2022/02/27 05:27:25;;;;;;;26.73;9.73;;;-0.80;99.90;;;;;;5072768;28;20483;-66
2022/02/27 05:29:53;;;;;;;23.40;10.85;;;-0.70;99.90;;;;;;5071115;28;20060;-65
2022/02/27 05:32:20;;;;;;;24.27;10.35;;;-0.80;99.90;;;;;;5072297;28;20398;-66
2022/02/27 05:34:47;;;;;;;24.67;9.95;;;-0.70;99.90;;;;;;5072280;28;20094;-65
2022/02/27 05:37:19;;;;;;;;;;;-0.80;99.90;;;;;;5073381;28;20406;-64
2022/02/27 05:39:46;;;;;;;22.58;9.80;;;-0.80;99.90;;;;;;5069984;28;20493;-65
2022/02/27 05:42:14;;;;;;;24.15;9.70;;;-0.70;99.90;;;;;;5070284;28;20181;-64
2022/02/27 05:44:42;;;;;;;21.50;9.50;;;-0.70;99.90;;;;;;5071941;28;20048;-65
2022/02/27 05:47:10;;;;;;;23.52;10.07;;;-0.70;99.90;;;;;;5054579;28;20502;-64
2022/02/27 05:49:37;;;;;;;22.55;9.65;;;-0.70;99.90;;;;;;5071739;28;20036;-64
2022/02/27 05:52:05;;;;;;;24.10;11.05;;;-0.70;99.90;;;;;;5071765;28;20111;-64
2022/02/27 05:54:32;;;;;;;20.83;9.77;;;-0.70;99.90;;;;;;5071323;28;20049;-65
2022/02/27 05:57:00;;;;;;;21.02;9.80;;;-0.70;99.90;;;;;;5069640;28;20487;-65
2022/02/27 05:59:27;;;;;;;25.55;10.07;;;-0.70;99.90;;;;;;5054391;28;20113;-65
2022/02/27 06:01:55;;;;;;;27.48;9.73;;;-0.70;99.90;;;;;;5064115;28;20102;-65
2022/02/27 06:04:22;;;;;;;21.73;10.10;;;-0.70;99.90;;;;;;5072447;28;20048;-64
2022/02/27 06:06:51;;;;;;;23.98;9.85;;;-0.70;99.90;;;;;;5071814;28;20048;-66
2022/02/27 06:09:18;;;;;;;21.83;9.30;;;-0.60;99.90;;;;;;5071470;28;20053;-65
2022/02/27 06:11:47;;;;;;;21.67;9.98;;;-0.60;99.90;;;;;;5069915;28;20406;-66
2022/02/27 06:14:15;;;;;;;24.92;9.90;;;-0.50;99.90;;;;;;5070380;28;20143;-66
2022/02/27 06:16:42;;;;;;;19.23;9.23;;;-0.50;99.90;;;;;;5068327;28;20554;-66
2022/02/27 06:19:10;;;;;;;20.50;10.70;;;-0.40;99.90;;;;;;5070674;28;20040;-65
2022/02/27 06:21:37;;;;;;;24.27;9.13;;;-0.40;99.90;;;;;;5066453;28;20402;-66
2022/02/27 06:24:05;;;;;;;23.50;8.48;;;-0.30;99.90;;;;;;5070710;28;20036;-66
2022/02/27 06:26:34;;;;;;;20.63;8.95;;;-0.20;99.90;;;;;;5070784;28;20048;-66
2022/02/27 06:29:02;;;;;;;22.38;9.10;;;-0.20;99.90;;;;;;5063198;28;20139;-66
2022/02/27 06:31:31;;;;;;;18.73;9.02;;;-0.10;99.90;;;;;;5070644;28;20499;-66
2022/02/27 06:33:58;;;;;;;19.65;9.50;;;0.00;99.90;;;;;;5071429;28;20070;-66
2022/02/27 06:36:26;;;;;;;20.65;9.50;;;0.00;99.90;;;;;;5050170;28;20461;-66
2022/02/27 06:38:53;;;;;;;19.08;8.27;;;0.20;99.90;;;;;;5071182;28;20036;-66
2022/02/27 06:41:21;;;;;;;19.60;8.63;;;0.20;99.90;;;;;;5063479;28;20052;-65
2022/02/27 06:43:48;;;;;;;21.83;8.20;;;0.20;99.90;;;;;;5070907;28;20821;-65
2022/02/27 06:46:16;;;;;;;19.27;8.25;;;0.30;99.90;;;;;;5051529;28;20083;-65
2022/02/27 06:48:44;;;;;;;18.38;8.07;;;0.30;99.90;;;;;;5072317;28;20044;-65
2022/02/27 06:51:12;;;;;;;21.83;8.55;;;0.40;99.90;;;;;;5057749;28;20053;-66
2022/02/27 06:53:39;;;;;;;19.95;7.78;;;0.50;99.90;;;;;;5070131;28;20071;-67
2022/02/27 06:56:09;;;;;;;18.00;8.07;;;0.50;99.90;;;;;;5070973;28;20041;-65
2022/02/27 06:58:36;;;;;;;20.15;7.78;;;0.60;99.90;;;;;;5070103;28;20048;-65
2022/02/27 07:01:03;;;;;;;18.88;8.07;;;0.60;99.90;;;;;;5067559;28;20049;-66
2022/02/27 07:03:30;;;;;;;18.10;8.93;;;0.70;99.90;;;;;;5070263;28;20474;-67
2022/02/27 07:05:58;;;;;;;16.15;8.13;;;0.80;99.90;;;;;;5071457;28;20075;-66
2022/02/27 07:08:25;;;;;;;24.65;8.23;;;0.80;99.90;;;;;;5054052;28;20498;-67
2022/02/27 07:10:54;;;;;;;19.38;8.30;;;0.90;99.90;;;;;;5067876;28;20033;-67
2022/02/27 07:13:21;;;;;;;16.85;7.82;;;0.90;99.90;;;;;;5071475;28;20411;-67
2022/02/27 07:15:49;;;;;;;17.88;7.80;;;1.00;99.90;;;;;;5065552;28;20032;-66
2022/02/27 07:18:16;;;;;;;17.27;8.40;;;1.00;99.90;;;;;;5067915;28;20068;-67
2022/02/27 07:20:44;;;;;;;15.93;7.80;;;1.10;99.90;;;;;;5071094;28;20036;-66
2022/02/27 07:23:11;;;;;;;21.15;8.07;;;1.20;99.90;;;;;;5061586;28;20043;-66
2022/02/27 07:25:38;;;;;;;19.10;8.10;;;1.20;99.90;;;;;;5071179;28;20420;-67
2022/02/27 07:28:06;;;;;;;17.38;8.48;;;1.30;99.90;;;;;;5064424;28;20483;-67
2022/02/27 07:30:33;;;;;;;18.90;7.97;;;1.30;99.90;;;;;;5063525;28;20454;-67
2022/02/27 07:33:00;;;;;;;13.57;7.80;;;1.40;99.90;;;;;;5054452;28;20052;-66
2022/02/27 07:35:27;;;;;;;18.05;7.95;;;1.40;99.90;;;;;;5060269;28;20041;-67
2022/02/27 07:37:55;;;;;;;14.60;7.57;;;1.50;99.90;;;;;;5053813;28;20040;-66
2022/02/27 07:40:22;;;;;;;16.98;8.38;;;1.50;99.90;;;;;;5071900;28;20044;-67
2022/02/27 07:42:49;;;;;;;19.63;8.15;;;1.60;99.90;;;;;;5072099;28;20055;-66
2022/02/27 07:45:18;;;;;;;19.67;8.50;;;1.70;99.90;;;;;;5070675;28;20055;-67
2022/02/27 07:47:45;;;;;;;15.90;8.15;;;1.80;99.90;;;;;;5071347;28;20051;-65
2022/02/27 07:50:12;;;;;;;17.42;8.00;;;1.80;99.90;;;;;;5070306;28;20032;-66
2022/02/27 07:52:40;;;;;;;19.45;8.10;;;1.90;99.90;;;;;;5071115;28;20049;-67
2022/02/27 07:55:07;;;;;;;22.42;8.45;;;2.00;99.90;;;;;;5071649;28;20053;-66
2022/02/27 07:57:35;;;;;;;22.33;9.20;;;2.10;99.90;;;;;;5057383;28;20515;-65
2022/02/27 08:00:04;;;;;;;23.70;7.93;;;2.10;99.90;;;;;;5054498;28;20049;-67
2022/02/27 08:02:38;;;;;;;18.05;8.30;;;2.20;99.90;;;;;;5086749;28;20032;-66
2022/02/27 08:05:06;;;;;;;19.65;8.13;;;2.30;99.90;;;;;;5061772;28;20040;-66
2022/02/27 08:07:33;;;;;;;19.33;7.50;;;2.40;99.90;;;;;;5071410;28;20054;-67
2022/02/27 08:10:01;;;;;;;23.98;8.10;;;2.50;99.90;;;;;;5066964;28;20059;-67
2022/02/27 08:12:31;;;;;;;18.83;8.55;;;2.60;99.90;;;;;;5054146;28;20106;-68
2022/02/27 08:14:58;;;;;;;15.65;7.90;;;2.60;99.90;;;;;;5071733;28;20068;-67
2022/02/27 08:17:26;;;;;;;15.93;8.10;;;2.70;99.90;;;;;;5072041;28;20041;-67
2022/02/27 08:19:53;;;;;;;18.02;8.32;;;2.70;99.90;;;;;;5051848;28;20123;-67
2022/02/27 08:22:20;;;;;;;18.65;8.50;;;2.80;99.90;;;;;;5043975;28;20044;-67
2022/02/27 08:24:48;;;;;;;19.00;8.00;;;2.90;99.90;;;;;;5066588;28;20067;-67
2022/02/27 08:27:15;;;;;;;13.85;6.80;;;3.00;99.90;;;;;;5071467;28;20044;-68
2022/02/27 08:29:44;;;;;;;17.75;7.25;;;3.10;99.90;;;;;;5066827;28;20032;-67
2022/02/27 08:32:12;;;;;;;16.45;7.18;;;3.20;99.90;;;;;;5051019;28;20047;-66
2022/02/27 08:34:39;;;;;;;16.08;7.38;;;3.30;99.90;;;;;;5067983;28;20090;-67
2022/02/27 08:37:07;;;;;;;13.98;6.30;;;3.40;99.90;;;;;;5071014;28;20140;-66
2022/02/27 08:39:35;;;;;;;18.77;7.35;;;3.40;99.90;;;;;;5069902;28;20049;-66
2022/02/27 08:42:04;;;;;;;11.98;6.47;;;3.60;99.90;;;;;;5067700;28;20036;-66
2022/02/27 08:44:35;;;;;;;24.08;7.28;;;3.70;99.90;;;;;;5071655;28;20078;-67
2022/02/27 08:47:03;;;;;;;16.52;6.20;;;3.80;99.90;;;;;;5068767;28;20048;-67
2022/02/27 08:49:31;;;;;;;15.57;7.43;;;3.90;99.90;;;;;;5055798;28;20040;-67
2022/02/27 08:51:59;;;;;;;20.95;8.25;;;4.00;99.90;;;;;;5016522;28;20068;-67
2022/02/27 08:54:26;;;;;;;13.68;6.03;;;4.00;99.90;;;;;;5051065;28;20056;-67
2022/02/27 08:56:53;;;;;;;13.13;6.10;;;4.10;99.90;;;;;;5064807;28;20065;-67
2022/02/27 08:59:21;;;;;;;16.30;6.85;;;4.20;99.90;;;;;;5067601;28;20532;-66
2022/02/27 09:01:48;;;;;;;16.35;5.70;;;4.30;99.90;;;;;;5074220;28;20376;-67
2022/02/27 09:04:16;;;;;;;14.15;5.75;;;4.40;99.90;;;;;;5045764;28;20053;-66
2022/02/27 09:06:45;;;;;;;11.70;5.68;;;4.50;99.90;;;;;;5069989;28;20044;-67
2022/02/27 09:09:14;;;;;;;10.95;4.78;;;4.60;99.90;;;;;;5062190;28;20093;-66
2022/02/27 09:11:46;;;;;;;14.60;5.70;;;4.70;99.90;;;;;;5070938;28;20037;-68
2022/02/27 09:14:13;;;;;;;14.88;5.80;;;4.70;99.90;;;;;;5061957;28;20043;-66
2022/02/27 09:16:40;;;;;;;8.90;4.95;;;4.80;99.90;;;;;;5068744;28;20041;-67
2022/02/27 09:19:07;;;;;;;14.10;4.15;;;5.00;99.90;;;;;;5061273;28;20048;-66
2022/02/27 09:21:36;;;;;;;9.88;4.40;;;5.10;99.90;;;;;;5069790;28;20068;-66
2022/02/27 09:24:04;;;;;;;7.93;3.25;;;5.20;99.90;;;;;;5068010;28;20041;-67
2022/02/27 09:26:31;;;;;;;8.57;3.40;;;5.20;99.90;;;;;;5069406;28;20045;-67
2022/02/27 09:29:00;;;;;;;7.40;3.45;;;5.20;99.90;;;;;;5068300;28;20403;-66
2022/02/27 09:31:28;;;;;;;7.75;3.55;;;5.40;99.90;;;;;;5066949;28;20052;-67
2022/02/27 09:33:55;;;;;;;6.63;3.22;;;5.40;99.90;;;;;;5050284;28;20052;-66
2022/02/27 09:36:26;;;;;;;7.85;3.65;;;5.60;99.90;;;;;;5044123;28;20103;-66
2022/02/27 09:38:53;;;;;;;6.82;3.30;;;5.70;99.90;;;;;;5067308;28;20052;-66
2022/02/27 09:41:21;;;;;;;7.28;3.53;;;5.70;99.90;;;;;;5073171;28;20040;-66
2022/02/27 09:43:58;;;;;;;10.73;3.70;;;5.80;99.90;;;;;;5047692;28;20040;-67
2022/02/27 09:46:27;;;;;;;8.20;3.83;;;5.70;99.90;;;;;;5054686;28;20045;-67
2022/02/27 09:48:55;;;;;;;10.82;4.07;;;5.80;99.90;;;;;;5057758;28;20032;-65
2022/02/27 09:51:23;;;;;;;15.63;7.20;;;5.90;99.90;;;;;;5053300;28;20056;-67
2022/02/27 09:53:51;;;;;;;9.40;3.65;;;6.00;99.90;;;;;;5036922;28;20041;-67
2022/02/27 09:56:19;;;;;;;11.70;5.20;;;6.10;99.90;;;;;;5053818;28;20095;-67
2022/02/27 09:58:46;;;;;;;7.35;3.65;;;6.20;99.90;;;;;;5061761;28;20626;-67
2022/02/27 10:01:15;;;;;;;6.78;3.50;;;6.30;99.90;;;;;;5069751;28;20483;-67
2022/02/27 10:03:44;;;;;;;5.78;3.22;;;6.40;99.90;;;;;;5072550;28;20500;-66
2022/02/27 10:06:13;;;;;;;7.43;3.10;;;6.50;99.90;;;;;;5067361;28;20049;-66
2022/02/27 10:08:44;;;;;;;8.10;3.03;;;6.60;99.90;;;;;;5065180;28;20075;-68
2022/02/27 10:11:21;;;;;;;4.75;2.88;;;6.70;99.90;;;;;;5067501;28;20507;-67
2022/02/27 10:13:53;;;;;;;6.68;3.50;;;6.80;99.90;;;;;;5072309;28;20040;-67
2022/02/27 10:16:26;;;;;;;8.23;3.25;;;6.90;99.90;;;;;;5068190;28;20193;-66
2022/02/27 10:18:59;;;;;;;7.00;3.63;;;7.10;99.90;;;;;;5070762;28;20400;-66
2022/02/27 10:21:30;;;;;;;6.43;3.22;;;7.30;99.90;;;;;;5065630;28;20051;-66
2022/02/27 10:24:17;;;;;;;9.77;4.15;;;7.40;99.90;;;;;;5068597;28;20107;-67
2022/02/27 10:26:48;;;;;;;6.93;3.47;;;7.60;99.90;;;;;;5068109;28;20040;-67
2022/02/27 10:29:24;;;;;;;8.18;3.92;;;7.70;99.90;;;;;;5049050;28;20044;-67
2022/02/27 10:31:56;;;;;;;8.60;3.88;;;7.80;99.90;;;;;;5059165;28;20048;-66
2022/02/27 10:34:30;;;;;;;13.15;3.92;;;7.90;99.90;;;;;;5057794;28;20052;-67
2022/02/27 10:37:06;;;;;;;7.22;3.80;;;8.10;99.90;;;;;;5039372;28;20407;-68
2022/02/27 10:39:42;;;;;;;7.35;4.03;;;8.30;99.90;;;;;;5054171;28;20041;-68
2022/02/27 10:42:20;;;;;;;10.55;4.13;;;8.40;99.90;;;;;;5047999;28;20102;-68
2022/02/27 10:45:01;;;;;;;7.85;4.03;;;8.50;99.90;;;;;;5043848;28;20044;-67
2022/02/27 10:47:30;;;;;;;7.65;3.63;;;8.70;99.90;;;;;;5057977;28;20087;-67
2022/02/27 10:50:07;;;;;;;7.70;3.97;;;8.70;99.90;;;;;;5059715;28;20064;-67
2022/02/27 10:52:44;;;;;;;10.43;5.13;;;8.70;99.90;;;;;;5070489;28;20116;-68
2022/02/27 10:55:13;;;;;;;7.30;4.00;;;9.00;99.90;;;;;;5068873;28;20082;-67
2022/02/27 10:57:44;;;;;;;8.25;4.35;;;8.90;99.90;;;;;;5057202;28;20571;-67
2022/02/27 11:00:14;;;;;;;10.70;4.78;;;9.10;99.90;;;;;;5053977;28;20214;-68
2022/02/27 11:02:43;;;;;;;8.30;4.45;;;9.10;99.90;;;;;;5072064;28;20049;-67
2022/02/27 11:05:13;;;;;;;10.73;5.95;;;9.00;99.90;;;;;;5072663;28;20515;-67
2022/02/27 11:07:44;;;;;;;8.85;4.43;;;9.20;99.90;;;;;;5088410;28;20201;-66
2022/02/27 11:10:14;;;;;;;8.93;4.60;;;9.30;99.90;;;;;;5055813;28;21035;-67
2022/02/27 11:12:42;;;;;;;7.35;4.30;;;9.60;99.90;;;;;;5063011;28;20052;-67
2022/02/27 11:15:17;;;;;;;9.35;3.90;;;9.80;99.90;;;;;;5071419;28;20462;-66
2022/02/27 11:17:46;;;;;;;6.75;3.85;;;9.90;99.90;;;;;;5048473;28;20044;-67
2022/02/27 11:20:15;;;;;;;8.50;4.05;;;10.10;99.90;;;;;;5066955;28;20045;-66
2022/02/27 11:22:43;;;;;;;8.98;4.22;;;10.30;99.90;;;;;;5065439;28;20079;-66
2022/02/27 11:25:11;;;;;;;8.35;4.03;;;10.40;99.90;;;;;;5069960;28;20432;-66
2022/02/27 11:27:53;;;;;;;10.65;4.05;;;10.50;99.90;;;;;;5061583;28;20506;-66
2022/02/27 11:30:23;;;;;;;8.60;5.00;;;10.60;99.90;;;;;;5069191;28;20044;-66
2022/02/27 11:32:58;;;;;;;8.57;4.05;;;10.60;99.90;;;;;;5049949;28;20052;-67
2022/02/27 11:35:44;;;;;;;7.38;3.95;;;10.90;99.90;;;;;;5072192;28;20400;-68
2022/02/27 11:38:33;;;;;;;8.80;4.50;;;11.10;99.90;;;;;;5069716;28;20044;-66
2022/02/27 11:41:06;;;;;;;9.10;4.32;;;11.40;99.90;;;;;;5067792;28;20452;-67
2022/02/27 11:43:53;;;;;;;7.05;3.75;;;11.50;99.90;;;;;;5037230;28;20044;-66
2022/02/27 11:46:35;;;;;;;9.18;5.18;;;11.80;99.90;;;;;;5047598;28;20072;-67
2022/02/27 11:49:07;;;;;;;9.37;4.57;;;12.10;99.90;;;;;;5064876;28;20395;-67
2022/02/27 11:51:37;;;;;;;8.68;4.50;;;12.30;99.90;;;;;;5036888;28;20393;-67
2022/02/27 11:54:07;;;;;;;8.85;4.07;;;12.40;99.90;;;;;;5055458;28;20078;-66
2022/02/27 11:56:38;;;;;;;7.38;4.45;;;12.60;99.90;;;;;;5062263;28;20467;-67
2022/02/27 11:59:06;;;;;;;8.27;4.35;;;12.60;99.90;;;;;;5062517;28;20074;-66
2022/02/27 12:01:57;;;;;;;7.82;4.03;;;13.00;99.90;;;;;;5070464;28;20044;-66
2022/02/27 12:04:26;;;;;;;7.63;3.85;;;13.30;99.60;;;;;;5070848;28;20460;-66
2022/02/27 12:07:08;;;;;;;8.02;4.10;;;13.60;98.80;;;;;;5070339;28;20047;-67
2022/02/27 12:09:47;;;;;;;7.93;3.92;;;13.70;98.30;;;;;;5071024;28;20479;-67
2022/02/27 12:12:43;;;;;;;7.43;3.70;;;13.60;96.50;;;;;;5072234;28;20734;-67
2022/02/27 12:15:18;;;;;;;6.75;3.40;;;13.20;95.80;;;;;;5052273;28;20741;-67
2022/02/27 12:18:15;;;;;;;8.60;3.85;;;13.30;95.70;;;;;;5063604;28;20058;-68
2022/02/27 12:20:53;;;;;;;10.23;3.53;;;13.40;95.60;;;;;;5065084;28;20048;-66
2022/02/27 12:23:35;;;;;;;7.65;4.43;;;13.50;95.30;;;;;;5070808;28;20047;-64
2022/02/27 12:26:06;;;;;;;6.75;3.20;;;13.60;95.20;;;;;;5051843;28;20055;-68
2022/02/27 12:28:52;;;;;;;8.55;4.32;;;13.90;95.50;;;;;;5070370;28;20511;-67
2022/02/27 12:31:21;;;;;;;5.82;3.45;;;14.20;94.70;;;;;;5062311;28;20045;-68
2022/02/27 12:33:50;;;;;;;7.30;3.92;;;14.20;94.80;;;;;;5071392;28;20037;-67
2022/02/27 12:36:38;;;;;;;8.77;4.18;;;14.50;94.40;;;;;;5043989;28;20052;-68
2022/02/27 12:39:08;;;;;;;7.65;3.22;;;14.70;93.20;;;;;;5069410;28;20049;-67
2022/02/27 12:41:40;;;;;;;7.20;3.30;;;15.10;93.20;;;;;;5056529;28;20564;-67
2022/02/27 12:44:10;;;;;;;7.07;3.28;;;15.40;92.80;;;;;;5041047;28;20546;-67
2022/02/27 12:46:38;;;;;;;6.65;3.60;;;15.70;91.00;;;;;;5064614;28;20056;-67
2022/02/27 12:51:52;;;;;;;6.20;3.50;;;18.30;85.50;;;;;;5070299;28;20049;-66
2022/02/27 12:54:34;;;;;;;5.72;3.50;;;20.40;79.50;;;;;;5069809;28;20086;-68
2022/02/27 12:57:05;;;;;;;7.28;3.53;;;22.10;73.90;;;;;;5070157;28;20043;-67